createdAt,value
2023-05-05T00:00:02.511Z,614.7692
2023-05-05T00:01:03.332Z,613.9231
2023-05-05T00:02:04.914Z,615.4615
2023-05-05T00:03:06.764Z,615.5385
2023-05-05T00:04:08.218Z,616.5385
2023-05-05T00:05:09.886Z,616.9231
2023-05-05T00:06:11.593Z,619.8461
2023-05-05T00:07:13.147Z,618.0769
2023-05-05T00:08:14.794Z,617.2308
2023-05-05T00:09:16.424Z,616.4615
2023-05-05T00:10:18.090Z,616.6923
2023-05-05T00:11:19.760Z,614.6154
2023-05-05T00:12:21.331Z,613.4615
2023-05-05T00:13:23.048Z,614.2308
2023-05-05T00:14:24.659Z,617.9231
2023-05-05T00:15:26.307Z,619.0769
2023-05-05T00:16:28.081Z,617.3077
2023-05-05T00:17:29.610Z,617.6154
2023-05-05T00:18:31.276Z,612.0769
2023-05-05T00:19:32.893Z,614.7692
2023-05-05T00:20:34.583Z,615.6923
2023-05-05T00:21:36.244Z,621.1539
2023-05-05T00:22:37.862Z,622.6154
2023-05-05T00:23:39.472Z,620.8461
2023-05-05T00:24:41.217Z,620.4615
2023-05-05T00:25:42.754Z,621.8461
2023-05-05T00:26:44.490Z,622.6923
2023-05-05T00:27:46.152Z,621.4615
2023-05-05T00:28:47.770Z,619.8461
2023-05-05T00:29:49.331Z,628.0769
2023-05-05T00:30:51.070Z,626.5385
2023-05-05T00:31:52.665Z,625.0769
2023-05-05T00:32:54.467Z,624.4615
2023-05-05T00:33:55.908Z,623.8461
2023-05-05T00:34:57.673Z,624.3077
2023-05-05T00:35:59.281Z,622.3846
2023-05-05T00:37:00.929Z,622.4615
2023-05-05T00:38:02.482Z,622.1539
2023-05-05T00:39:04.207Z,623.5385
2023-05-05T00:40:05.897Z,624.1539
2023-05-05T00:41:07.485Z,624.4615
2023-05-05T00:42:10.493Z,624.4615
2023-05-05T00:43:10.692Z,628.0769
2023-05-05T00:44:12.394Z,625.6923
2023-05-05T00:45:15.004Z,622.6923
2023-05-05T00:46:15.704Z,621.0000
2023-05-05T00:47:17.389Z,623.8461
2023-05-05T00:48:19.078Z,625.7692
2023-05-05T00:49:20.666Z,625.6154
2023-05-05T00:50:22.255Z,625.9231
2023-05-05T00:51:23.991Z,624.6154
2023-05-05T00:52:25.601Z,624.6154
2023-05-05T00:53:27.226Z,626.3846
2023-05-05T00:54:28.824Z,625.9231
2023-05-05T00:55:30.504Z,625.6923
2023-05-05T00:56:32.121Z,619.4615
2023-05-05T00:57:33.830Z,618.2308
2023-05-05T00:58:35.355Z,619.2308
2023-05-05T00:59:37.082Z,618.8461
2023-05-05T01:00:38.679Z,620.3846
2023-05-05T01:01:41.491Z,620.7692
2023-05-05T01:02:42.458Z,620.6923
2023-05-05T01:03:43.845Z,621.6923
2023-05-05T01:04:46.139Z,620.1539
2023-05-05T01:05:46.883Z,619.9231
2023-05-05T01:06:48.494Z,623.9231
2023-05-05T01:07:50.130Z,624.0000
2023-05-05T01:08:51.794Z,621.3077
2023-05-05T01:10:04.201Z,622.0769
2023-05-05T01:10:55.089Z,621.5385
2023-05-05T01:11:56.780Z,620.6923
2023-05-05T01:12:58.436Z,619.6154
2023-05-05T01:13:59.967Z,617.9231
2023-05-05T01:15:01.639Z,617.8461
2023-05-05T01:16:03.337Z,617.9231
2023-05-05T01:17:04.951Z,615.2308
2023-05-05T01:18:06.764Z,617.7692
2023-05-05T01:19:08.200Z,619.3077
2023-05-05T01:20:10.013Z,618.2308
2023-05-05T01:21:11.495Z,616.9231
2023-05-05T01:22:13.129Z,617.6154
2023-05-05T01:23:14.786Z,617.3846
2023-05-05T01:24:16.386Z,616.4615
2023-05-05T01:25:18.073Z,615.0769
2023-05-05T01:26:19.691Z,617.8461
2023-05-05T01:27:21.367Z,617.0769
2023-05-05T01:28:23.021Z,616.7692
2023-05-05T01:29:24.643Z,617.1539
2023-05-05T01:30:26.257Z,615.0000
2023-05-05T01:31:28.032Z,618.1539
2023-05-05T01:32:29.635Z,620.2308
2023-05-05T01:33:31.556Z,621.6923
2023-05-05T01:34:32.892Z,617.0000
2023-05-05T01:35:34.515Z,615.3077
2023-05-05T01:36:36.150Z,612.4615
2023-05-05T01:37:37.868Z,612.3846
2023-05-05T01:38:39.498Z,609.1539
2023-05-05T01:39:41.107Z,611.6923
2023-05-05T01:40:42.766Z,612.2308
2023-05-05T01:41:44.439Z,611.5385
2023-05-05T01:42:46.063Z,612.6154
2023-05-05T01:43:47.739Z,611.4615
2023-05-05T01:44:49.241Z,607.4615
2023-05-05T01:45:50.980Z,605.0769
2023-05-05T01:46:52.560Z,604.0000
2023-05-05T01:47:54.273Z,606.3077
2023-05-05T01:48:55.836Z,605.7692
2023-05-05T01:49:57.605Z,606.7692
2023-05-05T01:50:59.158Z,609.0769
2023-05-05T01:52:00.870Z,607.4615
2023-05-05T01:53:02.473Z,606.9231
2023-05-05T01:54:04.958Z,609.9231
2023-05-05T01:55:05.800Z,612.5385
2023-05-05T01:56:07.365Z,610.5385
2023-05-05T01:57:09.010Z,614.7692
2023-05-05T01:58:10.781Z,613.1539
2023-05-05T01:59:12.334Z,609.7692
2023-05-05T02:00:13.997Z,609.1539
2023-05-05T02:01:15.604Z,606.7692
2023-05-05T02:02:17.266Z,604.9231
2023-05-05T02:03:18.969Z,606.4615
2023-05-05T02:04:20.665Z,608.0000
2023-05-05T02:05:22.198Z,604.9231
2023-05-05T02:06:23.820Z,603.0769
2023-05-05T02:07:25.429Z,601.7692
2023-05-05T02:08:27.185Z,600.7692
2023-05-05T02:09:28.754Z,601.5385
2023-05-05T02:10:30.415Z,600.8461
2023-05-05T02:11:32.004Z,604.4615
2023-05-05T02:12:33.719Z,605.8461
2023-05-05T02:13:35.368Z,608.7692
2023-05-05T02:14:36.997Z,606.6923
2023-05-05T02:15:38.678Z,604.4615
2023-05-05T02:16:40.284Z,603.3846
2023-05-05T02:17:41.939Z,601.8461
2023-05-05T02:18:43.565Z,600.4615
2023-05-05T02:19:45.250Z,602.5385
2023-05-05T02:20:46.860Z,605.3077
2023-05-05T02:21:48.561Z,603.8461
2023-05-05T02:22:50.131Z,604.6154
2023-05-05T02:23:51.922Z,602.3077
2023-05-05T02:24:53.467Z,600.2308
2023-05-05T02:25:55.018Z,601.7692
2023-05-05T02:26:56.816Z,603.0000
2023-05-05T02:27:58.319Z,606.6154
2023-05-05T02:29:00.031Z,607.6923
2023-05-05T02:30:01.654Z,605.0000
2023-05-05T02:31:03.294Z,602.8461
2023-05-05T02:32:04.986Z,602.4615
2023-05-05T02:33:06.715Z,605.3077
2023-05-05T02:34:08.226Z,604.9231
2023-05-05T02:35:09.896Z,609.1539
2023-05-05T02:36:11.536Z,611.0769
2023-05-05T02:37:13.214Z,601.3077
2023-05-05T02:38:14.783Z,603.7692
2023-05-05T02:39:16.426Z,605.3077
2023-05-05T02:40:18.082Z,607.0000
2023-05-05T02:41:19.690Z,607.5385
2023-05-05T02:42:21.923Z,607.0000
2023-05-05T02:43:23.124Z,604.5385
2023-05-05T02:44:24.626Z,605.6154
2023-05-05T02:45:26.855Z,607.6923
2023-05-05T02:46:27.963Z,607.3846
2023-05-05T02:47:29.628Z,605.4615
2023-05-05T02:48:31.148Z,603.6154
2023-05-05T02:49:32.885Z,603.8461
2023-05-05T02:50:34.498Z,606.0769
2023-05-05T02:51:36.232Z,607.1539
2023-05-05T02:52:37.824Z,606.7692
2023-05-05T02:53:39.443Z,607.3077
2023-05-05T02:54:41.436Z,605.6923
2023-05-05T02:55:42.753Z,606.2308
2023-05-05T02:56:44.359Z,609.5385
2023-05-05T02:57:46.001Z,611.1539
2023-05-05T02:58:47.620Z,615.7692
2023-05-05T02:59:49.339Z,613.5385
2023-05-05T03:00:50.953Z,610.3077
2023-05-05T03:01:52.736Z,609.8461
2023-05-05T03:02:54.339Z,608.6923
2023-05-05T03:03:55.976Z,608.1539
2023-05-05T03:04:57.556Z,608.9231
2023-05-05T03:05:59.208Z,610.2308
2023-05-05T03:07:00.767Z,613.2308
2023-05-05T03:08:02.533Z,613.3077
2023-05-05T03:09:04.171Z,612.6154
2023-05-05T03:10:06.203Z,611.5385
2023-05-05T03:11:07.386Z,612.3846
2023-05-05T03:12:09.096Z,610.8461
2023-05-05T03:13:10.858Z,612.3077
2023-05-05T03:14:12.369Z,611.0769
2023-05-05T03:15:14.071Z,611.2308
2023-05-05T03:16:15.780Z,611.6154
2023-05-05T03:17:17.310Z,614.4615
2023-05-05T03:18:18.988Z,615.4615
2023-05-05T03:19:20.617Z,609.8461
2023-05-05T03:20:22.302Z,609.7692
2023-05-05T03:21:23.963Z,611.8461
2023-05-05T03:22:25.536Z,611.2308
2023-05-05T03:23:27.175Z,609.1539
2023-05-05T03:24:28.850Z,612.7692
2023-05-05T03:25:30.557Z,612.3077
2023-05-05T03:26:32.487Z,610.9231
2023-05-05T03:27:33.796Z,613.4615
2023-05-05T03:28:35.363Z,616.3846
2023-05-05T03:29:37.096Z,614.3846
2023-05-05T03:30:38.781Z,608.6923
2023-05-05T03:31:41.102Z,612.7692
2023-05-05T03:32:42.082Z,609.8461
2023-05-05T03:33:43.649Z,606.9231
2023-05-05T03:34:45.245Z,608.0000
2023-05-05T03:35:46.976Z,608.8461
2023-05-05T03:36:48.582Z,608.5385
2023-05-05T03:37:50.971Z,609.7692
2023-05-05T03:38:51.816Z,610.6923
2023-05-05T03:39:53.605Z,608.7692
2023-05-05T03:40:55.195Z,608.3077
2023-05-05T03:41:56.853Z,606.3077
2023-05-05T03:42:58.434Z,605.8461
2023-05-05T03:44:00.185Z,610.8461
2023-05-05T03:45:01.733Z,611.0769
2023-05-05T03:46:03.469Z,609.3077
2023-05-05T03:47:06.000Z,609.0769
2023-05-05T03:48:06.752Z,607.3846
2023-05-05T03:49:08.311Z,609.3077
2023-05-05T03:50:10.170Z,609.0000
2023-05-05T03:51:11.636Z,608.1539
2023-05-05T03:52:15.093Z,607.5385
2023-05-05T03:53:14.976Z,606.2308
2023-05-05T03:54:16.552Z,606.0769
2023-05-05T03:55:18.186Z,603.8461
2023-05-05T03:56:19.873Z,605.6923
2023-05-05T03:57:21.468Z,605.9231
2023-05-05T03:58:24.011Z,603.8461
2023-05-05T03:59:24.741Z,601.1539
2023-05-05T04:00:26.464Z,601.3077
2023-05-05T04:01:28.859Z,603.6923
2023-05-05T04:02:29.855Z,604.6154
2023-05-05T04:03:31.651Z,604.0769
2023-05-05T04:04:33.154Z,604.4615
2023-05-05T04:05:34.653Z,602.1539
2023-05-05T04:06:36.293Z,602.0769
2023-05-05T04:07:37.927Z,598.3846
2023-05-05T04:08:40.068Z,597.4615
2023-05-05T04:09:41.959Z,596.3846
2023-05-05T04:10:42.907Z,597.8461
2023-05-05T04:11:44.545Z,600.3846
2023-05-05T04:12:46.356Z,602.6154
2023-05-05T04:13:47.871Z,601.2308
2023-05-05T04:14:49.537Z,603.0000
2023-05-05T04:15:51.104Z,601.3077
2023-05-05T04:16:52.716Z,600.4615
2023-05-05T04:17:55.142Z,601.6154
2023-05-05T04:18:56.061Z,599.5385
2023-05-05T04:19:57.720Z,597.6154
2023-05-05T04:20:59.306Z,597.8461
2023-05-05T04:22:00.971Z,599.6154
2023-05-05T04:23:02.643Z,600.4615
2023-05-05T04:24:04.278Z,602.1539
2023-05-05T04:25:05.964Z,602.0769
2023-05-05T04:26:07.514Z,600.2308
2023-05-05T04:27:09.192Z,595.9231
2023-05-05T04:28:10.852Z,593.7692
2023-05-05T04:29:12.523Z,597.7692
2023-05-05T04:30:14.143Z,601.4615
2023-05-05T04:31:15.753Z,603.3077
2023-05-05T04:32:17.296Z,597.2308
2023-05-05T04:33:19.018Z,592.6154
2023-05-05T04:34:20.640Z,594.2308
2023-05-05T04:35:22.300Z,594.8461
2023-05-05T04:36:23.936Z,595.6923
2023-05-05T04:37:25.520Z,593.3846
2023-05-05T04:38:27.301Z,594.3077
2023-05-05T04:39:29.535Z,595.5385
2023-05-05T04:40:30.481Z,596.1539
2023-05-05T04:41:32.049Z,597.3846
2023-05-05T04:42:33.701Z,597.4615
2023-05-05T04:43:35.400Z,596.0769
2023-05-05T04:44:37.474Z,594.7692
2023-05-05T04:45:38.705Z,593.1539
2023-05-05T04:46:40.326Z,592.9231
2023-05-05T04:47:42.045Z,594.1539
2023-05-05T04:48:43.590Z,595.3077
2023-05-05T04:49:45.476Z,592.9231
2023-05-05T04:50:46.971Z,591.1539
2023-05-05T04:51:48.547Z,594.5385
2023-05-05T04:52:51.392Z,596.6154
2023-05-05T04:53:53.091Z,595.0000
2023-05-05T04:54:53.632Z,597.6154
2023-05-05T04:55:55.286Z,595.7692
2023-05-05T04:56:56.918Z,596.3846
2023-05-05T04:57:58.584Z,597.1539
2023-05-05T04:59:00.206Z,594.7692
2023-05-05T05:00:01.893Z,594.8461
2023-05-05T05:01:03.525Z,593.4615
2023-05-05T05:02:05.246Z,593.0769
2023-05-05T05:03:06.854Z,592.7692
2023-05-05T05:04:08.422Z,589.8461
2023-05-05T05:05:10.094Z,589.9231
2023-05-05T05:06:11.723Z,584.5385
2023-05-05T05:07:13.336Z,590.0000
2023-05-05T05:08:15.087Z,592.5385
2023-05-05T05:09:16.575Z,593.0000
2023-05-05T05:10:18.342Z,595.3846
2023-05-05T05:11:19.974Z,594.6154
2023-05-05T05:12:21.563Z,589.9231
2023-05-05T05:13:23.269Z,589.3077
2023-05-05T05:14:24.898Z,590.3846
2023-05-05T05:15:26.463Z,594.3077
2023-05-05T05:16:28.351Z,593.3846
2023-05-05T05:17:29.858Z,590.3077
2023-05-05T05:18:31.521Z,591.8461
2023-05-05T05:19:34.069Z,592.0769
2023-05-05T05:20:35.092Z,592.6923
2023-05-05T05:21:36.425Z,592.6923
2023-05-05T05:22:38.009Z,594.3846
2023-05-05T05:23:39.658Z,595.3077
2023-05-05T05:24:41.363Z,596.3846
2023-05-05T05:25:43.897Z,595.8461
2023-05-05T05:26:44.690Z,596.0769
2023-05-05T05:27:50.136Z,597.0000
2023-05-05T05:28:47.856Z,593.0000
2023-05-05T05:29:49.558Z,594.4615
2023-05-05T05:30:51.228Z,593.9231
2023-05-05T05:31:52.803Z,594.8461
2023-05-05T05:32:54.544Z,594.0769
2023-05-05T05:33:56.191Z,596.6923
2023-05-05T05:34:57.678Z,597.3846
2023-05-05T05:35:59.470Z,594.4615
2023-05-05T05:37:01.076Z,592.9231
2023-05-05T05:38:02.700Z,594.1539
2023-05-05T05:39:04.256Z,593.3846
2023-05-05T05:40:06.032Z,593.3077
2023-05-05T05:41:07.535Z,593.6154
2023-05-05T05:42:10.507Z,592.4615
2023-05-05T05:43:10.923Z,591.2308
2023-05-05T05:44:12.522Z,592.9231
2023-05-05T05:45:14.094Z,593.8461
2023-05-05T05:46:15.886Z,592.9231
2023-05-05T05:47:17.500Z,593.1539
2023-05-05T05:48:20.104Z,596.3846
2023-05-05T05:49:20.598Z,594.6923
2023-05-05T05:50:22.673Z,596.6923
2023-05-05T05:51:24.267Z,598.9231
2023-05-05T05:52:25.978Z,594.2308
2023-05-05T05:53:28.665Z,588.3846
2023-05-05T05:54:29.666Z,589.5385
2023-05-05T05:55:30.492Z,591.5385
2023-05-05T05:56:32.215Z,592.8461
2023-05-05T05:57:34.167Z,594.2308
2023-05-05T05:58:35.413Z,594.0000
2023-05-05T05:59:37.121Z,589.0769
2023-05-05T06:00:38.950Z,587.8461
2023-05-05T06:01:40.445Z,586.6154
2023-05-05T06:02:42.296Z,589.0000
2023-05-05T06:03:43.712Z,591.0769
2023-05-05T06:04:45.285Z,590.7692
2023-05-05T06:05:46.886Z,587.1539
2023-05-05T06:06:48.675Z,584.1539
2023-05-05T06:07:50.229Z,584.1539
2023-05-05T06:08:51.877Z,582.7692
2023-05-05T06:09:53.503Z,580.5385
2023-05-05T06:10:55.272Z,582.0769
2023-05-05T06:11:56.831Z,583.3077
2023-05-05T06:12:58.578Z,583.8461
2023-05-05T06:14:00.071Z,586.3846
2023-05-05T06:15:01.727Z,584.4615
2023-05-05T06:16:03.395Z,581.8461
2023-05-05T06:17:05.085Z,578.7692
2023-05-05T06:18:06.702Z,578.1539
2023-05-05T06:19:08.349Z,577.3077
2023-05-05T06:20:10.058Z,574.7692
2023-05-05T06:21:11.630Z,568.3077
2023-05-05T06:22:13.348Z,569.4615
2023-05-05T06:23:14.886Z,571.6154
2023-05-05T06:24:16.474Z,571.0769
2023-05-05T06:25:18.180Z,568.3077
2023-05-05T06:26:19.818Z,564.3077
2023-05-05T06:27:21.446Z,560.7692
2023-05-05T06:28:23.612Z,559.0769
2023-05-05T06:29:24.694Z,560.1539
2023-05-05T06:30:26.413Z,559.9231
2023-05-05T06:31:27.996Z,559.8461
2023-05-05T06:32:30.164Z,554.2308
2023-05-05T06:33:31.328Z,553.9231
2023-05-05T06:34:32.970Z,556.9231
2023-05-05T06:35:34.596Z,556.3077
2023-05-05T06:36:36.306Z,557.0769
2023-05-05T06:37:37.868Z,558.0769
2023-05-05T06:38:39.571Z,555.5385
2023-05-05T06:39:41.135Z,550.2308
2023-05-05T06:40:42.841Z,550.0000
2023-05-05T06:41:44.478Z,551.4615
2023-05-05T06:42:46.160Z,550.5385
2023-05-05T06:43:48.097Z,551.9231
2023-05-05T06:44:49.469Z,554.0000
2023-05-05T06:45:50.950Z,552.8461
2023-05-05T06:46:52.731Z,547.6154
2023-05-05T06:47:54.295Z,543.0000
2023-05-05T06:48:56.118Z,541.3846
2023-05-05T06:49:57.502Z,543.3077
2023-05-05T06:50:59.201Z,540.4615
2023-05-05T06:52:00.799Z,541.1539
2023-05-05T06:53:02.481Z,543.2308
2023-05-05T06:54:04.152Z,542.6154
2023-05-05T06:55:05.742Z,538.0000
2023-05-05T06:56:07.405Z,536.8461
2023-05-05T06:57:09.054Z,538.0769
2023-05-05T06:58:11.600Z,534.3077
2023-05-05T06:59:12.308Z,534.0769
2023-05-05T07:00:13.898Z,533.7692
2023-05-05T07:01:15.720Z,528.8461
2023-05-05T07:02:17.211Z,527.0769
2023-05-05T07:03:18.914Z,524.5385
2023-05-05T07:04:20.561Z,519.1539
2023-05-05T07:05:22.244Z,513.2308
2023-05-05T07:06:23.765Z,511.2308
2023-05-05T07:07:25.451Z,512.0769
2023-05-05T07:08:27.066Z,511.4615
2023-05-05T07:09:28.743Z,509.6154
2023-05-05T07:10:30.356Z,506.8462
2023-05-05T07:11:31.956Z,503.4615
2023-05-05T07:12:33.668Z,504.2308
2023-05-05T07:13:35.249Z,504.9231
2023-05-05T07:14:37.019Z,504.6923
2023-05-05T07:15:38.684Z,501.6923
2023-05-05T07:16:40.337Z,501.0769
2023-05-05T07:17:41.879Z,502.5385
2023-05-05T07:18:43.586Z,505.6154
2023-05-05T07:19:45.248Z,506.9231
2023-05-05T07:20:46.965Z,505.3846
2023-05-05T07:21:48.437Z,503.3077
2023-05-05T07:22:50.107Z,503.1538
2023-05-05T07:23:52.091Z,503.2308
2023-05-05T07:24:53.462Z,498.9231
2023-05-05T07:25:54.998Z,492.7692
2023-05-05T07:26:56.644Z,485.9231
2023-05-05T07:27:58.272Z,490.5385
2023-05-05T07:29:00.008Z,492.0769
2023-05-05T07:30:02.073Z,491.7692
2023-05-05T07:31:03.263Z,493.2308
2023-05-05T07:32:04.921Z,495.0769
2023-05-05T07:33:06.554Z,495.0000
2023-05-05T07:34:08.519Z,497.9231
2023-05-05T07:35:09.789Z,497.7692
2023-05-05T07:36:11.519Z,499.4615
2023-05-05T07:37:13.104Z,498.6923
2023-05-05T07:38:15.602Z,496.6154
2023-05-05T07:39:17.127Z,503.6923
2023-05-05T07:40:18.095Z,499.0769
2023-05-05T07:41:19.651Z,493.9231
2023-05-05T07:42:21.422Z,493.3077
2023-05-05T07:43:23.015Z,495.0769
2023-05-05T07:44:24.658Z,493.1538
2023-05-05T07:45:26.268Z,492.3846
2023-05-05T07:46:28.016Z,493.7692
2023-05-05T07:47:29.587Z,489.0000
2023-05-05T07:48:31.193Z,488.6154
2023-05-05T07:49:32.811Z,489.3846
2023-05-05T07:50:34.505Z,489.7692
2023-05-05T07:51:36.051Z,489.5385
2023-05-05T07:52:45.313Z,489.3077
2023-05-05T07:53:39.304Z,484.3077
2023-05-05T07:54:40.960Z,485.3077
2023-05-05T07:55:43.033Z,487.8462
2023-05-05T07:56:44.569Z,488.7692
2023-05-05T07:57:45.963Z,489.6923
2023-05-05T07:58:48.488Z,485.9231
2023-05-05T07:59:49.226Z,486.7692
2023-05-05T08:00:50.999Z,488.6154
2023-05-05T08:01:54.791Z,486.5385
2023-05-05T08:02:54.322Z,487.8462
2023-05-05T08:03:55.995Z,484.5385
2023-05-05T08:04:57.596Z,482.0769
2023-05-05T08:05:59.305Z,478.9231
2023-05-05T08:07:00.877Z,475.3846
2023-05-05T08:08:02.567Z,480.0769
2023-05-05T08:09:04.159Z,484.7692
2023-05-05T08:10:05.832Z,485.4615
2023-05-05T08:11:07.479Z,486.6154
2023-05-05T08:12:09.896Z,483.0000
2023-05-05T08:13:10.632Z,480.9231
2023-05-05T08:14:12.278Z,481.6923
2023-05-05T08:15:13.924Z,480.6154
2023-05-05T08:16:15.583Z,476.6923
2023-05-05T08:17:18.144Z,476.7692
2023-05-05T08:18:18.861Z,474.4615
2023-05-05T08:19:28.600Z,468.5385
2023-05-05T08:20:22.148Z,467.3846
2023-05-05T08:21:23.793Z,466.0000
2023-05-05T08:22:25.421Z,462.3846
2023-05-05T08:23:27.048Z,459.5385
2023-05-05T08:24:28.640Z,458.7692
2023-05-05T08:25:30.283Z,456.8462
2023-05-05T08:26:31.933Z,457.5385
2023-05-05T08:27:33.625Z,457.3846
2023-05-05T08:28:35.307Z,457.9231
2023-05-05T08:29:36.827Z,455.0000
2023-05-05T08:30:38.434Z,457.0000
2023-05-05T08:31:40.320Z,459.6923
2023-05-05T08:32:41.871Z,460.3077
2023-05-05T08:33:43.450Z,457.3077
2023-05-05T08:34:45.014Z,456.9231
2023-05-05T08:35:46.706Z,456.2308
2023-05-05T08:36:48.360Z,458.0000
2023-05-05T08:37:49.964Z,459.5385
2023-05-05T08:38:51.593Z,460.6923
2023-05-05T08:39:53.202Z,463.6154
2023-05-05T08:40:54.953Z,464.3846
2023-05-05T08:41:56.590Z,464.9231
2023-05-05T08:42:58.230Z,460.0000
2023-05-05T08:43:59.779Z,459.7692
2023-05-05T08:45:01.425Z,459.3077
2023-05-05T08:46:03.163Z,458.8462
2023-05-05T08:47:04.864Z,456.6923
2023-05-05T08:48:06.460Z,456.7692
2023-05-05T08:49:08.087Z,457.3846
2023-05-05T08:50:09.681Z,457.3077
2023-05-05T08:51:11.256Z,457.0000
2023-05-05T08:52:13.024Z,453.0000
2023-05-05T08:53:14.600Z,454.6923
2023-05-05T08:54:16.222Z,452.3846
2023-05-05T08:55:17.942Z,453.8462
2023-05-05T08:56:19.467Z,456.0000
2023-05-05T08:57:21.185Z,455.0000
2023-05-05T08:58:23.015Z,454.3077
2023-05-05T08:59:24.403Z,453.0000
2023-05-05T09:00:26.095Z,450.9231
2023-05-05T09:01:27.710Z,449.6154
2023-05-05T09:02:29.474Z,451.6923
2023-05-05T09:03:31.065Z,450.0000
2023-05-05T09:04:32.656Z,449.6154
2023-05-05T09:05:34.253Z,451.6154
2023-05-05T09:06:35.924Z,452.2308
2023-05-05T09:07:37.554Z,451.4615
2023-05-05T09:08:39.233Z,454.1538
2023-05-05T09:09:40.818Z,452.6923
2023-05-05T09:10:42.495Z,453.5385
2023-05-05T09:11:44.147Z,456.0000
2023-05-05T09:12:45.818Z,459.3077
2023-05-05T09:13:48.001Z,457.1538
2023-05-05T09:14:49.109Z,453.9231
2023-05-05T09:15:50.685Z,451.8462
2023-05-05T09:16:52.265Z,452.7692
2023-05-05T09:17:53.982Z,454.9231
2023-05-05T09:18:55.673Z,450.7692
2023-05-05T09:19:57.361Z,450.8462
2023-05-05T09:20:59.573Z,450.3846
2023-05-05T09:22:00.550Z,453.0000
2023-05-05T09:23:02.204Z,453.5385
2023-05-05T09:24:08.216Z,457.4615
2023-05-05T09:25:05.682Z,460.0769
2023-05-05T09:26:07.072Z,459.0769
2023-05-05T09:27:08.785Z,458.3846
2023-05-05T09:28:10.428Z,454.6154
2023-05-05T09:29:12.079Z,453.4615
2023-05-05T09:30:13.719Z,453.6154
2023-05-05T09:31:15.445Z,454.3846
2023-05-05T09:32:16.992Z,456.0769
2023-05-05T09:33:18.623Z,457.4615
2023-05-05T09:34:20.342Z,454.0769
2023-05-05T09:35:22.039Z,450.5385
2023-05-05T09:36:24.233Z,452.2308
2023-05-05T09:37:25.216Z,453.3077
2023-05-05T09:38:26.789Z,455.7692
2023-05-05T09:39:28.548Z,453.2308
2023-05-05T09:40:30.138Z,455.0000
2023-05-05T09:41:31.731Z,455.1538
2023-05-05T09:42:33.407Z,452.3077
2023-05-05T09:43:35.096Z,452.6154
2023-05-05T09:44:36.736Z,454.2308
2023-05-05T09:45:38.722Z,456.4615
2023-05-05T09:46:40.049Z,454.6923
2023-05-05T09:47:41.612Z,452.3846
2023-05-05T09:48:43.271Z,451.3077
2023-05-05T09:49:45.688Z,452.7692
2023-05-05T09:50:46.667Z,452.0000
2023-05-05T09:51:49.010Z,453.7692
2023-05-05T09:52:49.807Z,454.6154
2023-05-05T09:53:51.537Z,454.0769
2023-05-05T09:54:53.117Z,451.5385
2023-05-05T09:55:54.835Z,453.4615
2023-05-05T09:56:56.585Z,455.4615
2023-05-05T09:57:58.084Z,454.4615
2023-05-05T09:58:59.678Z,453.8462
2023-05-05T10:00:01.366Z,451.6923
2023-05-05T10:01:03.036Z,450.7692
2023-05-05T10:02:04.709Z,450.2308
2023-05-05T10:03:06.330Z,452.7692
2023-05-05T10:04:07.881Z,450.0769
2023-05-05T10:05:09.551Z,451.4615
2023-05-05T10:06:11.241Z,449.8462
2023-05-05T10:07:12.808Z,454.0769
2023-05-05T10:08:14.454Z,449.6154
2023-05-05T10:09:16.127Z,446.6923
2023-05-05T10:10:17.786Z,446.1538
2023-05-05T10:11:19.393Z,449.6923
2023-05-05T10:12:20.974Z,451.8462
2023-05-05T10:13:22.741Z,452.6154
2023-05-05T10:14:24.260Z,451.6154
2023-05-05T10:15:25.989Z,449.7692
2023-05-05T10:16:29.077Z,450.0769
2023-05-05T10:17:29.352Z,448.3077
2023-05-05T10:18:30.883Z,451.2308
2023-05-05T10:19:32.507Z,448.0000
2023-05-05T10:20:34.260Z,448.1538
2023-05-05T10:21:36.297Z,449.4615
2023-05-05T10:22:37.497Z,447.6923
2023-05-05T10:23:39.090Z,447.3846
2023-05-05T10:24:40.696Z,446.1538
2023-05-05T10:25:42.375Z,446.0000
2023-05-05T10:26:44.089Z,448.6154
2023-05-05T10:27:45.659Z,451.5385
2023-05-05T10:28:47.251Z,450.3077
2023-05-05T10:29:48.949Z,447.8462
2023-05-05T10:30:50.604Z,447.7692
2023-05-05T10:31:54.380Z,446.6923
2023-05-05T10:33:04.034Z,445.8462
2023-05-05T10:33:55.730Z,447.0000
2023-05-05T10:34:57.163Z,450.9231
2023-05-05T10:35:58.874Z,450.4615
2023-05-05T10:37:00.376Z,449.8462
2023-05-05T10:38:02.178Z,450.3846
2023-05-05T10:39:03.612Z,449.0000
2023-05-05T10:40:05.464Z,449.0000
2023-05-05T10:41:06.958Z,450.0000
2023-05-05T10:42:08.622Z,450.4615
2023-05-05T10:43:10.263Z,452.1538
2023-05-05T10:44:11.842Z,448.6923
2023-05-05T10:45:13.484Z,447.5385
2023-05-05T10:46:15.215Z,446.0769
2023-05-05T10:47:16.818Z,443.8462
2023-05-05T10:48:18.441Z,448.2308
2023-05-05T10:49:20.068Z,449.4615
2023-05-05T10:50:21.703Z,449.6154
2023-05-05T10:51:38.640Z,451.3077
2023-05-05T10:52:25.109Z,450.7500
2023-05-05T10:53:26.642Z,447.5385
2023-05-05T10:54:28.345Z,446.4615
2023-05-05T10:55:29.912Z,445.9231
2023-05-05T10:56:31.656Z,446.6923
2023-05-05T10:57:33.704Z,442.9231
2023-05-05T10:58:43.685Z,445.6154
2023-05-05T10:59:36.528Z,449.0000
2023-05-05T11:00:38.240Z,449.0000
2023-05-05T11:01:39.863Z,447.3077
2023-05-05T11:02:41.712Z,448.3846
2023-05-05T11:03:43.040Z,446.5385
2023-05-05T11:04:44.670Z,448.7692
2023-05-05T11:05:46.354Z,449.0000
2023-05-05T11:06:48.041Z,446.1538
2023-05-05T11:07:50.194Z,445.0769
2023-05-05T11:08:51.247Z,446.2308
2023-05-05T11:09:52.927Z,444.8462
2023-05-05T11:10:55.116Z,443.2308
2023-05-05T11:11:56.315Z,442.8462
2023-05-05T11:12:57.999Z,446.2308
2023-05-05T11:13:59.544Z,447.3846
2023-05-05T11:15:01.138Z,448.0000
2023-05-05T11:16:02.749Z,450.8462
2023-05-05T11:17:04.468Z,449.1538
2023-05-05T11:18:07.845Z,447.7692
2023-05-05T11:19:07.762Z,445.0769
2023-05-05T11:20:09.650Z,445.5385
2023-05-05T11:21:11.062Z,446.7692
2023-05-05T11:22:13.245Z,447.6154
2023-05-05T11:23:16.607Z,445.3846
2023-05-05T11:24:16.665Z,445.4615
2023-05-05T11:25:17.617Z,442.9231
2023-05-05T11:26:19.212Z,448.0769
2023-05-05T11:27:20.952Z,449.0000
2023-05-05T11:28:22.546Z,447.3077
2023-05-05T11:29:24.182Z,443.3077
2023-05-05T11:30:25.795Z,443.4615
2023-05-05T11:31:27.521Z,444.0000
2023-05-05T11:32:29.156Z,446.9231
2023-05-05T11:33:30.857Z,448.1538
2023-05-05T11:34:32.383Z,445.0000
2023-05-05T11:35:34.107Z,446.2308
2023-05-05T11:36:35.621Z,444.3077
2023-05-05T11:37:37.725Z,444.3077
2023-05-05T11:38:39.028Z,445.5385
2023-05-05T11:39:40.639Z,445.6154
2023-05-05T11:40:42.206Z,444.0769
2023-05-05T11:41:43.866Z,441.3077
2023-05-05T11:42:45.691Z,444.6154
2023-05-05T11:43:47.196Z,447.3846
2023-05-05T11:44:48.782Z,450.4615
2023-05-05T11:45:50.438Z,449.2308
2023-05-05T11:46:52.052Z,448.5385
2023-05-05T11:47:53.780Z,446.9231
2023-05-05T11:48:55.665Z,449.9231
2023-05-05T11:49:57.081Z,449.0000
2023-05-05T11:50:58.631Z,448.4615
2023-05-05T11:52:00.297Z,448.0000
2023-05-05T11:53:02.021Z,448.5385
2023-05-05T11:54:03.700Z,447.6154
2023-05-05T11:55:05.350Z,449.4615
2023-05-05T11:56:07.013Z,447.3077
2023-05-05T11:57:08.655Z,445.6154
2023-05-05T11:58:10.393Z,448.6154
2023-05-05T11:59:11.946Z,446.4615
2023-05-05T12:00:13.564Z,445.1538
2023-05-05T12:01:15.212Z,445.2308
2023-05-05T12:02:16.968Z,446.8462
2023-05-05T12:03:18.577Z,446.0769